Picton Castle — E5WP — position and weather

sailwx.info

Track history (hours):
 
Tides and Currents Weather Stations Pressure Air Temp Water Temp Dewpoint Dewpoint Depression Visibility Wind Speed Wind Dir Waves Ship Positions

Picton Castle (Cook Islands)

Ship's website: http://www.picton-castle.com/

Last reported at 2015-Apr-18 17:33 UTC. Time now 2015-May-23 13:27 UTC.
Position N 17°01' W 061°47'.
Warning: this ship's position is 34 days out of date.

Length 37 m; draft 4.4 m.

Type: Sailing vessel. MMSI: 518000019.

Date/timePositionNaut miles runAvg speedWind from/ knotsBaromVisibWave heightAir tempDewpointWater temp
2015-Apr-18 17:33N 17°01' W 061°47'0 0.0
2015-Apr-18 16:33N 17°01' W 061°47'0 0.0
2015-Apr-18 15:33N 17°01' W 061°47'0 0.0
2015-Apr-18 14:33N 17°01' W 061°47'0 0.0
2015-Apr-18 13:33N 17°01' W 061°47'0 0.0
2015-Apr-18 12:33N 17°01' W 061°47'0 0.0
2015-Apr-18 11:33N 17°01' W 061°47'0 0.0
2015-Apr-18 10:33N 17°01' W 061°47'0 0.0
2015-Apr-18 09:33N 17°01' W 061°47'0 0.0
2015-Apr-18 08:33N 17°01' W 061°47'0 0.0
2015-Apr-18 07:33N 17°01' W 061°47'0 0.0
2015-Apr-18 06:33N 17°01' W 061°47'0 0.0
2015-Apr-18 05:33N 17°01' W 061°47'0 0.0
2015-Apr-18 04:33N 17°01' W 061°47'0 0.0
2015-Apr-18 03:33N 17°01' W 061°47'0 0.0
2015-Apr-18 02:33N 17°01' W 061°47'0 0.0
2015-Apr-18 01:33N 17°01' W 061°47'0 0.0
2015-Apr-18 00:30N 17°01' W 061°47'0 0.0
2015-Apr-17 23:30N 17°01' W 061°47'0 0.0
2015-Apr-17 21:12N 17°01' W 061°47'0 0.0
2015-Apr-17 20:33N 17°01' W 061°47'0 0.0
2015-Apr-16 19:09N 17°01' W 061°47'0 0.0
2015-Apr-16 18:33N 17°01' W 061°47'0 0.0
2015-Apr-16 17:33N 17°01' W 061°47'0 0.0
2015-Apr-16 16:33N 17°01' W 061°47'0 0.0
2015-Apr-16 15:33N 17°01' W 061°47'0 0.0
2015-Apr-16 14:33N 17°01' W 061°47'0 0.0
2015-Apr-16 13:33N 17°01' W 061°47'0 0.0
2015-Apr-16 12:33N 17°01' W 061°47'0 0.0
2015-Apr-15 19:30N 17°01' W 061°47'0 0.0
2015-Apr-15 18:33N 17°01' W 061°47'0 0.0
2015-Apr-15 17:33N 17°01' W 061°47'0 0.0
2015-Apr-15 16:33N 17°01' W 061°47'0 0.0
2015-Apr-15 15:33N 17°01' W 061°47'1 1.3
2015-Apr-15 14:33N 16°60' W 061°47'6 5.5
2015-Apr-15 13:32N 16°55' W 061°51'142 4.7
2015-Apr-14 07:33N 14°38' W 061°12'7 7.3
2015-Apr-14 06:33N 14°31' W 061°10'  
Track history (hours):
 
Tides and Currents Weather Stations Pressure Air Temp Water Temp Dewpoint Dewpoint Depression Visibility Wind Speed Wind Dir Waves Ship Positions

Picton Castle (Cook Islands)

Ship's website: http://www.picton-castle.com/

Last reported at 2015-Apr-18 17:33 UTC. Time now 2015-May-23 13:27 UTC.
Position N 17°01' W 061°47'.
Warning: this ship's position is 34 days out of date.

Length 37 m; draft 4.4 m.

Type: Sailing vessel. MMSI: 518000019.

Date/timePositionNaut miles runAvg speedWind from/ knotsBaromVisibWave heightAir tempDewpointWater temp
2015-Apr-18 17:33N 17°01' W 061°47'0 0.0
2015-Apr-18 16:33N 17°01' W 061°47'0 0.0
2015-Apr-18 15:33N 17°01' W 061°47'0 0.0
2015-Apr-18 14:33N 17°01' W 061°47'0 0.0
2015-Apr-18 13:33N 17°01' W 061°47'0 0.0
2015-Apr-18 12:33N 17°01' W 061°47'0 0.0
2015-Apr-18 11:33N 17°01' W 061°47'0 0.0
2015-Apr-18 10:33N 17°01' W 061°47'0 0.0
2015-Apr-18 09:33N 17°01' W 061°47'0 0.0
2015-Apr-18 08:33N 17°01' W 061°47'0 0.0
2015-Apr-18 07:33N 17°01' W 061°47'0 0.0
2015-Apr-18 06:33N 17°01' W 061°47'0 0.0
2015-Apr-18 05:33N 17°01' W 061°47'0 0.0
2015-Apr-18 04:33N 17°01' W 061°47'0 0.0
2015-Apr-18 03:33N 17°01' W 061°47'0 0.0
2015-Apr-18 02:33N 17°01' W 061°47'0 0.0
2015-Apr-18 01:33N 17°01' W 061°47'0 0.0
2015-Apr-18 00:30N 17°01' W 061°47'0 0.0
2015-Apr-17 23:30N 17°01' W 061°47'0 0.0
2015-Apr-17 21:12N 17°01' W 061°47'0 0.0
2015-Apr-17 20:33N 17°01' W 061°47'0 0.0
2015-Apr-16 19:09N 17°01' W 061°47'0 0.0
2015-Apr-16 18:33N 17°01' W 061°47'0 0.0
2015-Apr-16 17:33N 17°01' W 061°47'0 0.0
2015-Apr-16 16:33N 17°01' W 061°47'0 0.0
2015-Apr-16 15:33N 17°01' W 061°47'0 0.0
2015-Apr-16 14:33N 17°01' W 061°47'0 0.0
2015-Apr-16 13:33N 17°01' W 061°47'0 0.0
2015-Apr-16 12:33N 17°01' W 061°47'0 0.0
2015-Apr-15 19:30N 17°01' W 061°47'0 0.0
2015-Apr-15 18:33N 17°01' W 061°47'0 0.0
2015-Apr-15 17:33N 17°01' W 061°47'0 0.0
2015-Apr-15 16:33N 17°01' W 061°47'0 0.0
2015-Apr-15 15:33N 17°01' W 061°47'1 1.3
2015-Apr-15 14:33N 16°60' W 061°47'6 5.5
2015-Apr-15 13:32N 16°55' W 061°51'142 4.7
2015-Apr-14 07:33N 14°38' W 061°12'7 7.3
2015-Apr-14 06:33N 14°31' W 061°10'  

Dump ship's entire track history